Terminal Aerodrome Forecast
Issued by NWS

Home | Current Version | Previous Version | Text Only | Print | Product List | Glossary On
Versions: 1 2 3 4 5 6 7 8 9 10 11 12
000
FTUS45 KPIH 260500
TAFSUN
TAF
KSUN 260529Z 2606/2706 31008KT P6SM SCT150
     FM261900 24010KT P6SM FEW025 BKN180
     FM270200 31008KT P6SM BKN200
      AMD LTD TO CLD VIS AND WIND TIL 261400=

USA.gov is the U.S. government's official web portal to all federal, state and local government web resources and services.